Time;durP1;ratioP1;P1;durP2;ratioP2;P2;SDS_P1;SDS_P2;PMS_P1;PMS_P2;Temp;Humidity;BMP_temperature;BMP_pressure;BME280_temperature;BME280_humidity;BME280_pressure;Samples;Min_cycle;Max_cycle;Signal;HPM_P1;HPM_P2
2023/10/06 00:02:41;;;;;;;3.58;2.38;;;;;;;19.68;52.61;97650.91;10287584;28;20039;-26
2023/10/06 00:07:41;;;;;;;2.90;2.22;;;;;;;19.70;52.54;97648.41;10285350;28;20039;-26
2023/10/06 00:12:47;;;;;;;2.87;1.77;;;;;;;19.71;52.33;97645.03;10294796;28;20043;-26
2023/10/06 00:17:49;;;;;;;5.38;2.55;;;;;;;19.69;51.97;97636.53;10278159;28;20062;-26
2023/10/06 00:22:49;;;;;;;3.63;2.50;;;;;;;19.68;52.67;97630.59;10290590;28;20061;-26
2023/10/06 00:27:49;;;;;;;4.30;2.70;;;;;;;19.68;52.31;97629.75;10279656;28;20423;-26
2023/10/06 00:32:50;;;;;;;3.50;2.37;;;;;;;19.69;52.13;97636.53;10287508;28;20413;-26
2023/10/06 00:37:51;;;;;;;3.08;2.15;;;;;;;19.66;52.26;97639.91;10283773;28;20306;-26
2023/10/06 00:43:00;;;;;;;4.20;2.30;;;;;;;19.67;52.39;97656.00;10295107;28;20063;-26
2023/10/06 00:48:04;;;;;;;6.30;3.10;;;;;;;19.66;52.39;97651.78;10286305;28;20031;-26
2023/10/06 00:53:05;;;;;;;3.33;2.08;;;;;;;19.65;52.16;97645.81;10282596;28;20142;-25
2023/10/06 00:58:10;;;;;;;3.05;2.30;;;;;;;19.65;52.12;97647.50;10279956;28;20095;-26
2023/10/06 01:03:14;;;;;;;3.85;2.35;;;;;;;19.54;52.23;97627.09;10287535;28;20042;-26
2023/10/06 01:08:15;;;;;;;4.72;2.75;;;;;;;19.62;52.16;97640.72;10290340;28;20089;-26
2023/10/06 01:13:18;;;;;;;6.03;2.75;;;;;;;19.63;51.96;97646.63;10299557;28;20072;-26
2023/10/06 01:18:23;;;;;;;3.60;2.30;;;;;;;19.63;52.27;97647.50;10286856;28;20031;-26
2023/10/06 01:23:27;;;;;;;4.93;2.85;;;;;;;19.63;52.21;97659.34;10293362;28;20090;-26
2023/10/06 01:28:34;;;;;;;3.83;2.88;;;;;;;19.63;51.79;97656.81;10282470;28;20062;-26
2023/10/06 01:33:35;;;;;;;4.85;2.85;;;;;;;19.63;51.68;97656.81;10273901;28;20493;-26
2023/10/06 01:38:36;;;;;;;4.77;2.83;;;;;;;19.59;51.86;97650.81;10273806;28;20126;-26
2023/10/06 01:43:38;;;;;;;4.95;2.63;;;;;;;19.60;51.71;97642.38;10281843;28;20409;-26
2023/10/06 01:48:38;;;;;;;4.97;3.00;;;;;;;19.61;51.53;97648.31;10278125;28;20178;-26
2023/10/06 01:53:40;;;;;;;4.60;2.77;;;;;;;19.61;51.67;97644.06;10283418;28;20039;-26
2023/10/06 01:58:41;;;;;;;4.43;2.40;;;;;;;19.66;51.62;97641.59;10276302;28;20035;-27
2023/10/06 02:03:42;;;;;;;3.83;2.83;;;;;;;19.62;51.52;97630.56;10280056;28;20043;-28
2023/10/06 02:08:54;;;;;;;3.47;2.33;;;;;;;19.60;51.66;97626.28;10286373;28;20293;-26
2023/10/06 02:13:54;;;;;;;5.13;3.00;;;;;;;19.60;51.59;97621.22;10285980;28;20626;-26
2023/10/06 02:18:55;;;;;;;4.13;2.80;;;;;;;19.60;51.37;97605.97;10274110;28;20027;-26
2023/10/06 02:24:03;;;;;;;5.22;2.85;;;;;;;19.61;51.58;97605.13;10282756;28;20290;-26
2023/10/06 02:29:15;;;;;;;5.35;2.67;;;;;;;19.56;51.38;97594.06;10283356;28;20038;-25
2023/10/06 02:34:26;;;;;;;5.82;2.83;;;;;;;19.57;51.27;97595.75;10273223;28;20026;-26
2023/10/06 02:39:28;;;;;;;5.22;3.10;;;;;;;19.56;51.24;97589.84;10285932;28;20042;-26
2023/10/06 02:44:30;;;;;;;4.35;2.95;;;;;;;19.57;51.16;97585.59;10280496;28;20043;-26
2023/10/06 02:49:35;;;;;;;5.32;2.90;;;;;;;19.56;51.08;97589.84;10283880;28;20123;-27
2023/10/06 02:54:36;;;;;;;5.25;3.10;;;;;;;19.56;51.09;97594.94;10276045;28;20039;-26
2023/10/06 02:59:36;;;;;;;4.78;3.05;;;;;;;19.55;51.14;97588.16;10268870;28;20035;-26
2023/10/06 03:04:39;;;;;;;3.77;2.30;;;;;;;19.57;51.21;97583.06;10275823;28;20039;-27
2023/10/06 03:09:47;;;;;;;5.13;3.45;;;;;;;19.58;51.12;97572.09;10289947;28;20321;-26
2023/10/06 03:14:47;;;;;;;5.15;2.63;;;;;;;19.66;51.25;97585.72;10296767;28;20022;-27
2023/10/06 03:25:18;;;;;;;4.03;2.47;;;;;;;19.72;51.46;97580.66;10294240;28;20031;-26
2023/10/06 03:30:33;;;;;;;4.70;2.50;;;;;;;19.73;51.52;97589.97;10281687;28;20035;-26
2023/10/06 03:35:45;;;;;;;4.07;3.13;;;;;;;19.69;51.25;97588.28;10284840;28;20066;-26
2023/10/06 03:45:58;;;;;;;4.85;2.90;;;;;;;19.67;51.06;97578.09;10283810;28;20027;-27
2023/10/06 03:50:59;;;;;;;4.37;2.80;;;;;;;19.66;50.81;97580.63;10280619;28;20038;-25
2023/10/06 03:56:00;;;;;;;4.85;2.70;;;;;;;19.63;51.13;97589.06;10277541;28;20648;-26
2023/10/06 04:01:08;;;;;;;3.97;2.60;;;;;;;19.63;51.12;97586.53;10302399;28;20052;-26
2023/10/06 04:06:12;;;;;;;4.22;3.10;;;;;;;19.65;51.04;97589.94;10295515;28;20031;-26
2023/10/06 04:11:16;;;;;;;3.70;2.47;;;;;;;19.65;51.08;97589.06;10301855;28;20038;-26
2023/10/06 04:16:17;;;;;;;4.07;3.00;;;;;;;19.65;50.89;97594.16;10283984;28;20027;-26
2023/10/06 04:21:18;;;;;;;4.45;2.75;;;;;;;19.65;50.72;97586.53;10281040;28;20026;-26
2023/10/06 04:26:18;;;;;;;4.05;2.45;;;;;;;19.63;50.90;97581.44;10284191;28;20080;-26
2023/10/06 04:31:19;;;;;;;4.90;2.23;;;;;;;19.64;50.78;97588.22;10283614;28;20030;-26
2023/10/06 04:36:23;;;;;;;6.93;3.10;;;;;;;19.65;50.69;97589.06;10291553;28;20767;-26
2023/10/06 04:41:23;;;;;;;5.07;3.33;;;;;;;19.66;50.76;97590.78;10280084;28;20509;-26
2023/10/06 04:46:23;;;;;;;6.50;2.67;;;;;;;19.66;50.35;97585.72;10275267;28;20038;-26
2023/10/06 04:51:26;;;;;;;5.15;3.00;;;;;;;19.69;50.78;97580.66;10285064;28;20026;-26
2023/10/06 04:56:32;;;;;;;6.82;2.42;;;;;;;19.54;51.29;97580.50;10279235;28;20031;-26
2023/10/06 05:01:33;;;;;;;6.30;2.87;;;;;;;19.46;50.79;97574.50;10284733;28;20034;-26
2023/10/06 05:06:33;;;;;;;8.40;3.28;;;;;;;19.41;50.31;97568.53;10282542;28;20509;-27
2023/10/06 05:11:34;;;;;;;5.43;3.00;;;;;;;19.60;50.50;97568.69;10280430;28;20046;-27
2023/10/06 05:16:34;;;;;;;5.67;2.57;;;;;;;19.64;50.37;97567.03;10275734;28;20022;-26
2023/10/06 05:21:36;;;;;;;4.43;2.38;;;;;;;19.65;51.17;97558.56;10272822;28;20306;-26
2023/10/06 05:26:36;;;;;;;4.68;2.70;;;;;;;19.66;50.55;97570.47;10281051;28;20042;-26
2023/10/06 05:31:37;;;;;;;6.70;3.17;;;;;;;19.14;47.10;97566.53;10274607;28;20438;-26
2023/10/06 05:36:37;;;;;;;7.38;2.90;;;;;;;19.35;49.49;97579.47;10279380;28;20280;-26
2023/10/06 05:41:44;;;;;;;5.53;2.53;;;;;;;19.49;49.91;97584.72;10288409;28;20041;-26
2023/10/06 05:46:44;;;;;;;6.28;2.92;;;;;;;19.51;49.88;97583.84;10278387;28;20039;-26
2023/10/06 05:51:44;;;;;;;5.47;3.13;;;;;;;19.42;50.11;97595.63;10280356;28;20081;-26
2023/10/06 05:56:47;;;;;;;4.77;3.00;;;;;;;19.36;49.39;97590.47;10277325;28;20290;-26
2023/10/06 06:01:56;;;;;;;6.60;3.40;;;;;;;19.22;48.65;97614.88;10269312;28;20125;-25
2023/10/06 06:07:02;;;;;;;5.30;3.17;;;;;;;19.19;48.26;97612.31;10277071;28;20038;-26
2023/10/06 06:12:03;;;;;;;6.78;3.13;;;;;;;19.16;48.65;97620.69;10283803;28;20122;-26
2023/10/06 06:17:05;;;;;;;4.32;2.63;;;;;;;19.10;48.42;97624.84;10277845;28;20045;-26
2023/10/06 06:22:05;;;;;;;4.53;2.85;;;;;;;19.10;48.49;97617.25;10277724;28;20045;-27
2023/10/06 06:27:06;;;;;;;4.55;2.95;;;;;;;19.07;48.45;97627.34;10280488;28;20038;-26
2023/10/06 06:32:11;;;;;;;7.45;3.20;;;;;;;19.13;48.81;97640.97;10280501;28;20122;-27
2023/10/06 06:37:13;;;;;;;10.48;3.10;;;;;;;19.31;49.36;97645.44;10274633;28;20027;-24
2023/10/06 06:42:14;;;;;;;7.47;2.22;;;;;;;19.41;49.44;97647.25;10282431;28;20492;-26
2023/10/06 06:47:18;;;;;;;8.32;3.03;;;;;;;19.46;49.80;97649.00;10290471;28;20022;-26
2023/10/06 06:52:22;;;;;;;10.52;3.30;;;;;;;19.49;50.69;97643.13;10276113;28;20024;-26
2023/10/06 06:57:22;;;;;;;8.25;2.75;;;;;;;19.49;50.43;97648.19;10290160;28;20029;-26
2023/10/06 07:02:22;;;;;;;10.37;3.30;;;;;;;19.45;51.04;97646.44;10282339;28;20023;-26
2023/10/06 07:07:23;;;;;;;9.57;3.00;;;;;;;19.46;51.18;97632.91;10282318;28;20298;-26
2023/10/06 07:12:25;;;;;;;9.25;3.03;;;;;;;19.46;51.14;97632.91;10295445;28;20392;-24
2023/10/06 07:17:26;;;;;;;9.87;3.37;;;;;;;19.45;51.33;97642.22;10281385;28;20045;-24
2023/10/06 07:22:31;;;;;;;7.15;2.85;;;;;;;19.47;51.35;97639.69;10279501;28;20038;-24
2023/10/06 07:27:34;;;;;;;6.18;2.55;;;;;;;19.45;51.61;97649.84;10276121;28;20468;-24
2023/10/06 07:32:34;;;;;;;6.07;2.47;;;;;;;19.44;51.89;97644.75;10278618;28;20447;-24
2023/10/06 07:37:36;;;;;;;7.30;3.07;;;;;;;19.46;51.75;97653.22;10281603;28;20035;-23
2023/10/06 07:42:36;;;;;;;5.15;2.70;;;;;;;19.47;51.75;97665.97;10283139;28;20035;-25
2023/10/06 07:47:38;;;;;;;6.27;2.90;;;;;;;19.46;51.57;97650.69;10279751;28;20100;-24
2023/10/06 07:52:41;;;;;;;6.78;2.80;;;;;;;19.46;51.57;97635.44;10272277;28;20041;-24
2023/10/06 07:57:45;;;;;;;5.15;2.58;;;;;;;19.46;51.85;97638.00;10271880;28;20027;-24
2023/10/06 08:02:45;;;;;;;8.27;2.55;;;;;;;19.52;52.12;97630.44;10281992;28;20122;-23
2023/10/06 08:07:46;;;;;;;4.73;3.03;;;;;;;19.54;51.71;97626.22;10271611;28;20035;-24
2023/10/06 08:12:49;;;;;;;12.75;3.10;;;;;;;19.51;52.05;97624.50;10274675;28;20049;-24
2023/10/06 08:17:52;;;;;;;5.25;2.70;;;;;;;19.54;52.12;97623.69;10280221;28;20033;-24
2023/10/06 08:22:53;;;;;;;8.02;3.00;;;;;;;19.53;52.38;97620.31;10270484;28;20054;-24
2023/10/06 08:27:54;;;;;;;5.45;2.50;;;;;;;19.58;52.09;97612.72;10277290;28;20494;-24
2023/10/06 08:32:55;;;;;;;4.88;2.95;;;;;;;19.60;52.91;97608.50;10278858;28;20026;-25
2023/10/06 08:37:56;;;;;;;7.93;2.60;;;;;;;19.61;52.42;97620.38;10282183;28;20022;-24
2023/10/06 08:42:57;;;;;;;9.57;3.90;;;;;;;19.54;53.11;97627.09;10278546;28;20030;-24
2023/10/06 08:47:58;;;;;;;6.53;3.70;;;;;;;19.57;53.25;97626.25;10283110;28;20034;-24
2023/10/06 08:53:04;;;;;;;8.80;3.08;;;;;;;19.55;53.33;97612.69;10271947;28;20090;-23
2023/10/06 08:58:07;;;;;;;5.20;3.03;;;;;;;19.59;53.66;97620.34;10273189;28;20118;-24
2023/10/06 09:03:07;;;;;;;5.97;2.58;;;;;;;19.59;53.49;97609.34;10276909;28;20118;-24
2023/10/06 09:08:14;;;;;;;11.60;3.20;;;;;;;19.58;53.53;97621.19;10272838;28;20045;-24
2023/10/06 09:13:17;;;;;;;3.55;2.30;;;;;;;19.58;53.47;97617.81;10271319;28;20493;-24
2023/10/06 09:18:27;;;;;;;6.70;2.75;;;;;;;19.59;53.65;97629.69;10279911;28;20086;-25
2023/10/06 09:23:36;;;;;;;10.90;2.83;;;;;;;19.57;53.67;97623.69;10274075;28;20584;-24
2023/10/06 09:28:55;;;;;;;7.05;2.90;;;;;;;19.57;54.08;97633.88;10270169;28;20045;-24
2023/10/06 09:33:56;;;;;;;6.07;2.63;;;;;;;19.58;53.99;97638.13;10273974;28;20066;-24
2023/10/06 09:39:00;;;;;;;5.93;2.60;;;;;;;19.59;53.99;97634.75;10269079;28;20038;-24
2023/10/06 09:44:07;;;;;;;5.07;2.38;;;;;;;19.60;53.80;97629.66;10274367;28;20031;-26
2023/10/06 09:49:11;;;;;;;7.25;3.47;;;;;;;19.59;53.77;97629.69;10270927;28;20070;-25
2023/10/06 09:54:12;;;;;;;6.47;2.80;;;;;;;19.60;54.37;97622.03;10280157;28;20019;-25
2023/10/06 09:59:13;;;;;;;7.75;3.08;;;;;;;19.63;54.50;97611.94;10278532;28;20118;-25
2023/10/06 10:04:14;;;;;;;7.03;2.53;;;;;;;19.64;54.14;97608.56;10264306;28;20043;-25
2023/10/06 10:09:18;;;;;;;12.85;2.50;;;;;;;19.62;54.27;97602.63;10277283;28;20721;-25
2023/10/06 10:14:39;;;;;;;5.18;2.90;;;;;;;19.64;54.40;97607.69;10276230;28;20030;-25
2023/10/06 10:19:43;;;;;;;5.43;2.33;;;;;;;19.67;54.12;97597.56;10268289;28;20049;-25
2023/10/06 10:24:44;;;;;;;5.75;2.70;;;;;;;19.70;54.26;97597.59;10275421;28;20050;-25
2023/10/06 10:29:45;;;;;;;6.10;3.40;;;;;;;19.75;54.09;97596.78;10281268;28;20027;-25
2023/10/06 10:35:06;;;;;;;5.75;3.55;;;;;;;19.77;53.46;97589.19;10274202;28;20050;-26
2023/10/06 10:40:12;;;;;;;9.00;4.32;;;;;;;19.80;53.97;97594.28;10276393;28;20073;-25
2023/10/06 10:45:36;;;;;;;9.43;4.90;;;;;;;19.78;54.23;97580.72;10276413;28;20046;-25
2023/10/06 10:51:01;;;;;;;9.23;5.68;;;;;;;19.75;54.43;97571.38;10269739;28;20052;-25
2023/10/06 10:56:02;;;;;;;8.75;5.50;;;;;;;19.79;54.49;97567.19;10281468;28;20035;-25
2023/10/06 11:01:27;;;;;;;9.32;5.68;;;;;;;19.77;54.47;97573.94;10277977;28;20039;-25
2023/10/06 11:06:29;;;;;;;8.18;5.30;;;;;;;19.73;54.87;97562.03;10275428;28;20830;-25
2023/10/06 11:11:31;;;;;;;12.57;5.47;;;;;;;19.73;55.18;97560.34;10268532;28;20117;-25
2023/10/06 11:16:32;;;;;;;12.23;6.57;;;;;;;19.74;54.98;97559.53;10266960;28;20551;-24
2023/10/06 11:21:32;;;;;;;9.35;6.05;;;;;;;19.75;54.93;97555.31;10264057;28;20047;-25
2023/10/06 11:26:33;;;;;;;7.80;5.30;;;;;;;19.72;55.04;97540.00;10280615;28;20070;-25
2023/10/06 11:31:34;;;;;;;9.15;5.15;;;;;;;19.74;54.79;97538.31;10275011;28;20046;-25
2023/10/06 11:36:34;;;;;;;9.50;5.47;;;;;;;19.74;54.79;97529.03;10277952;28;20049;-25
2023/10/06 11:41:34;;;;;;;6.27;4.50;;;;;;;19.73;54.96;97521.38;10270016;28;20038;-25
2023/10/06 11:46:54;;;;;;;9.53;5.00;;;;;;;19.73;54.95;97529.00;10267792;28;20038;-25
2023/10/06 11:51:56;;;;;;;10.02;4.57;;;;;;;19.73;55.03;97521.38;10269776;28;20472;-25
2023/10/06 11:56:57;;;;;;;9.88;5.07;;;;;;;19.73;54.83;97521.38;10271586;28;20215;-25
2023/10/06 12:02:06;;;;;;;8.70;5.63;;;;;;;19.69;55.57;97509.50;10277653;28;20034;-25
2023/10/06 12:07:08;;;;;;;9.43;3.90;;;;;;;19.71;55.17;97518.84;10271759;28;20042;-27
2023/10/06 12:12:09;;;;;;;37.25;8.32;;;;;;;19.69;55.19;97514.59;10290303;28;20037;-25
2023/10/06 12:17:13;;;;;;;20.17;6.70;;;;;;;19.70;55.14;97508.66;10263048;28;20023;-25
2023/10/06 12:22:14;;;;;;;13.40;5.65;;;;;;;19.69;54.99;97500.19;10265021;28;20393;-25
2023/10/06 12:27:17;;;;;;;18.42;6.57;;;;;;;19.72;55.17;97514.59;10267337;28;20042;-25
2023/10/06 12:32:18;;;;;;;13.25;5.22;;;;;;;19.74;55.01;97510.38;10269797;28;20027;-25
2023/10/06 12:37:18;;;;;;;13.53;4.80;;;;;;;19.74;55.34;97505.28;10266254;28;20042;-26
2023/10/06 12:42:18;;;;;;;10.23;4.43;;;;;;;19.75;54.99;97504.47;10265969;28;20513;-26
2023/10/06 12:47:19;;;;;;;12.37;5.50;;;;;;;19.72;55.30;97505.31;10263388;28;20406;-26
2023/10/06 12:52:19;;;;;;;12.47;4.50;;;;;;;19.75;55.13;97499.41;10270430;28;20460;-26
2023/10/06 12:57:20;;;;;;;14.27;4.72;;;;;;;19.71;55.95;97497.66;10280660;28;20415;-26
2023/10/06 13:02:24;;;;;;;12.23;4.47;;;;;;;19.77;55.98;97500.25;10294040;28;20035;-26
2023/10/06 13:07:25;;;;;;;10.00;4.15;;;;;;;19.75;56.12;97499.41;10287530;28;20122;-26
2023/10/06 13:12:28;;;;;;;8.93;3.67;;;;;;;19.76;55.85;97498.56;10281950;28;20039;-26
2023/10/06 13:17:33;;;;;;;7.35;4.47;;;;;;;19.74;55.98;97498.53;10289973;28;20038;-26
2023/10/06 13:22:35;;;;;;;8.40;4.00;;;;;;;19.74;55.93;97497.66;10279823;28;20050;-25
2023/10/06 13:27:38;;;;;;;7.53;3.88;;;;;;;19.72;56.01;97494.28;10290220;28;20508;-26
2023/10/06 13:32:40;;;;;;;7.50;3.58;;;;;;;19.73;55.88;97501.06;10280275;28;20035;-26
2023/10/06 13:37:40;;;;;;;7.28;4.05;;;;;;;19.73;55.82;97495.97;10281359;28;20034;-24
2023/10/06 13:42:45;;;;;;;6.57;3.40;;;;;;;19.70;56.10;97490.88;10280325;28;20039;-26
2023/10/06 13:47:52;;;;;;;10.45;3.83;;;;;;;19.72;55.82;97490.06;10275931;28;20042;-26
2023/10/06 13:52:54;;;;;;;6.75;3.65;;;;;;;19.72;55.93;97484.13;10279123;28;20047;-25
2023/10/06 13:57:58;;;;;;;7.90;4.20;;;;;;;19.73;55.76;97483.28;10282224;28;20042;-25
2023/10/06 14:02:59;;;;;;;6.65;4.20;;;;;;;19.70;55.88;97475.63;10285120;28;20515;-27
2023/10/06 14:08:02;;;;;;;5.90;3.83;;;;;;;19.73;56.03;97478.19;10287070;28;20046;-26
2023/10/06 14:13:17;;;;;;;7.65;4.03;;;;;;;19.73;55.64;97480.72;10279065;28;20030;-26
2023/10/06 14:18:22;;;;;;;5.03;3.53;;;;;;;19.72;55.90;97474.81;10298306;28;20069;-26
2023/10/06 14:23:34;;;;;;;7.88;3.50;;;;;;;19.72;56.06;97474.81;10293822;28;20040;-26
2023/10/06 14:28:34;;;;;;;6.07;3.80;;;;;;;19.73;55.64;97479.06;10279196;28;20031;-26
2023/10/06 14:33:44;;;;;;;6.20;3.77;;;;;;;19.73;55.72;97480.72;10276627;28;20050;-26
2023/10/06 14:49:13;;;;;;;13.38;4.13;;;;;;;19.72;56.22;97477.34;10283454;28;20031;-26
2023/10/06 14:54:13;;;;;;;10.32;3.97;;;;;;;19.73;56.06;97471.44;10279634;28;20062;-26
2023/10/06 14:59:14;;;;;;;9.38;3.47;;;;;;;19.74;56.16;97469.72;10289638;28;20038;-25
2023/10/06 15:04:14;;;;;;;9.40;3.47;;;;;;;19.73;56.40;97468.03;10277447;28;20031;-26
2023/10/06 15:09:17;;;;;;;9.30;3.60;;;;;;;19.72;56.04;97461.25;10281229;28;20031;-26
2023/10/06 15:14:23;;;;;;;6.95;3.60;;;;;;;19.72;56.22;97466.31;10284513;28;20511;-26
2023/10/06 15:19:24;;;;;;;5.72;2.97;;;;;;;19.72;56.14;97451.94;10284902;28;20076;-26
2023/10/06 15:24:25;;;;;;;6.97;2.97;;;;;;;19.70;56.27;97455.31;10289156;28;20114;-26
2023/10/06 15:29:27;;;;;;;7.53;3.60;;;;;;;19.70;56.20;97447.69;10282419;28;20045;-26
2023/10/06 15:34:28;;;;;;;6.00;3.30;;;;;;;19.70;56.47;97447.69;10290196;28;20281;-28
2023/10/06 15:39:31;;;;;;;6.20;3.20;;;;;;;19.70;56.17;97447.69;10285053;28;20045;-26
2023/10/06 15:44:32;;;;;;;6.82;3.17;;;;;;;19.69;56.10;97444.28;10291778;28;20527;-26
2023/10/06 15:49:32;;;;;;;6.77;3.00;;;;;;;19.69;56.43;97456.16;10288700;28;20045;-26
2023/10/06 15:54:33;;;;;;;4.90;3.10;;;;;;;19.68;56.24;97460.38;10281495;28;20027;-25
2023/10/06 15:59:37;;;;;;;4.50;2.80;;;;;;;19.68;56.63;97462.91;10284465;28;20031;-26
2023/10/06 16:04:39;;;;;;;5.97;3.00;;;;;;;19.69;56.47;97463.78;10291239;28;20313;-26
2023/10/06 16:09:39;;;;;;;6.88;2.67;;;;;;;19.68;56.74;97462.09;10280634;28;20746;-26
2023/10/06 16:14:39;;;;;;;5.40;2.97;;;;;;;19.61;56.58;97455.25;10286494;28;20030;-26
2023/10/06 16:19:40;;;;;;;4.67;3.00;;;;;;;19.67;56.45;97466.28;10288041;28;20092;-26
2023/10/06 16:24:41;;;;;;;6.05;2.80;;;;;;;19.67;56.44;97465.47;10282768;28;20050;-26
2023/10/06 16:29:41;;;;;;;5.57;3.13;;;;;;;19.66;56.53;97466.31;10280249;28;20050;-26
2023/10/06 16:34:42;;;;;;;5.85;2.92;;;;;;;19.68;56.22;97467.16;10279174;28;20042;-26
2023/10/06 16:39:43;;;;;;;5.23;2.80;;;;;;;19.71;56.01;97474.78;10285559;28;20042;-29
2023/10/06 16:44:44;;;;;;;4.82;2.83;;;;;;;19.71;56.12;97472.25;10274219;28;20463;-26
2023/10/06 16:49:44;;;;;;;7.03;3.58;;;;;;;19.76;55.79;97473.97;10280302;28;20053;-27
2023/10/06 16:54:45;;;;;;;4.13;2.60;;;;;;;19.80;55.86;97472.31;10280030;28;20082;-27
2023/10/06 16:59:46;;;;;;;4.50;2.78;;;;;;;19.79;55.66;97485.88;10269793;28;20281;-26
2023/10/06 17:04:47;;;;;;;7.63;2.93;;;;;;;19.81;55.68;97499.44;10288073;28;20029;-27
2023/10/06 17:09:48;;;;;;;5.15;2.53;;;;;;;19.82;55.82;97501.13;10281245;28;20077;-27
2023/10/06 17:14:52;;;;;;;5.75;2.65;;;;;;;19.73;55.88;97485.81;10272842;28;20481;-27
2023/10/06 17:19:53;;;;;;;5.85;2.85;;;;;;;19.80;55.99;97507.88;10285409;28;20042;-27
2023/10/06 17:24:53;;;;;;;9.38;3.70;;;;;;;19.78;55.94;97507.03;10237766;28;1051691;-27
2023/10/06 17:29:57;;;;;;;5.27;3.10;;;;;;;19.80;56.32;97518.06;10283785;28;20041;-27
2023/10/06 17:34:58;;;;;;;6.15;2.97;;;;;;;19.79;56.10;97521.44;10289624;28;20480;-27
2023/10/06 17:39:58;;;;;;;10.10;2.50;;;;;;;19.80;55.95;97525.69;10274186;28;20035;-27
2023/10/06 17:45:02;;;;;;;5.88;2.92;;;;;;;19.79;55.86;97526.53;10276681;28;20302;-26
2023/10/06 17:50:03;;;;;;;4.70;2.53;;;;;;;19.79;56.03;97522.31;10281544;28;20054;-26
2023/10/06 17:55:05;;;;;;;4.63;2.58;;;;;;;19.78;56.18;97519.75;10272751;28;20074;-27
2023/10/06 18:00:10;;;;;;;3.63;2.25;;;;;;;19.77;56.26;97529.03;10278810;28;20047;-27
2023/10/06 18:05:16;;;;;;;5.28;2.85;;;;;;;19.77;56.13;97531.56;10272458;28;20421;-26
2023/10/06 18:10:16;;;;;;;3.65;2.25;;;;;;;19.80;56.23;97538.38;10280053;28;20098;-26
2023/10/06 18:15:18;;;;;;;6.07;2.28;;;;;;;19.82;55.96;97531.63;10267524;28;20086;-26
2023/10/06 18:20:22;;;;;;;2.95;2.15;;;;;;;19.79;56.28;97522.31;10267840;28;20042;-25
2023/10/06 18:25:23;;;;;;;6.57;3.00;;;;;;;19.82;55.54;97534.16;10270912;28;20026;-25
2023/10/06 18:30:23;;;;;;;7.40;4.38;;;;;;;19.79;56.11;97540.09;10273215;28;20039;-25
2023/10/06 18:35:24;;;;;;;10.95;5.47;;;;;;;19.79;56.13;97557.00;10279442;28;20050;-26
2023/10/06 18:40:24;;;;;;;15.75;7.47;;;;;;;19.77;56.58;97559.53;10275671;28;20097;-25
2023/10/06 18:45:25;;;;;;;18.40;9.05;;;;;;;19.70;56.84;97577.25;10270211;28;20390;-25
2023/10/06 18:50:28;;;;;;;16.42;8.52;;;;;;;19.80;56.53;97568.88;10284264;28;20042;-25
2023/10/06 18:55:29;;;;;;;20.58;9.13;;;;;;;19.80;56.52;97568.88;10277066;28;20029;-25
2023/10/06 19:00:31;;;;;;;22.57;10.40;;;;;;;19.78;56.75;97571.44;10278604;28;20050;-25
2023/10/06 19:05:32;;;;;;;21.17;11.30;;;;;;;19.76;56.63;97573.09;10281050;28;20126;-25
2023/10/06 19:10:37;;;;;;;22.42;10.68;;;;;;;19.66;56.67;97560.31;10272961;28;20039;-25
2023/10/06 19:15:39;;;;;;;18.48;9.73;;;;;;;19.77;56.71;97579.03;10267861;28;20409;-25
2023/10/06 19:20:40;;;;;;;24.75;11.30;;;;;;;19.74;56.58;97582.38;10271023;28;20031;-26
2023/10/06 19:25:45;;;;;;;22.63;11.70;;;;;;;19.73;56.71;97585.78;10277292;28;22162;-25
2023/10/06 19:30:54;;;;;;;21.45;10.68;;;;;;;19.71;56.92;97590.00;10266359;28;20065;-26
2023/10/06 19:35:56;;;;;;;21.73;11.57;;;;;;;19.74;57.06;97596.75;10277553;28;20050;-25
2023/10/06 19:40:56;;;;;;;20.88;11.75;;;;;;;19.72;57.03;97585.75;10270285;28;20034;-27
2023/10/06 19:45:58;;;;;;;22.47;11.03;;;;;;;19.72;57.06;97590.81;10279022;28;20035;-27
2023/10/06 19:50:59;;;;;;;19.15;10.02;;;;;;;19.72;56.98;97586.59;10277323;28;20042;-27
2023/10/06 19:56:00;;;;;;;18.45;10.10;;;;;;;19.71;57.10;97589.13;10275336;28;20035;-27
2023/10/06 20:01:01;;;;;;;15.45;9.30;;;;;;;19.72;56.80;97588.28;10278906;28;20039;-30
2023/10/06 20:06:01;;;;;;;17.70;10.18;;;;;;;19.72;57.13;97595.91;10279538;28;20031;-27
2023/10/06 20:11:03;;;;;;;18.37;10.27;;;;;;;19.72;56.91;97586.59;10283341;28;20509;-28
2023/10/06 20:16:12;;;;;;;20.27;9.25;;;;;;;19.71;57.04;97582.38;10285113;28;20476;-26
2023/10/06 20:21:13;;;;;;;15.88;9.27;;;;;;;19.69;56.94;97581.47;10269493;28;20121;-27
2023/10/06 20:26:14;;;;;;;15.27;9.23;;;;;;;19.70;56.80;97577.25;10270778;28;20520;-27
2023/10/06 20:31:14;;;;;;;18.08;8.90;;;;;;;19.68;56.64;97578.94;10273749;28;20457;-30
2023/10/06 20:36:15;;;;;;;20.43;8.90;;;;;;;19.70;57.01;97582.34;10270983;28;20094;-28
2023/10/06 20:41:15;;;;;;;14.70;8.85;;;;;;;19.70;56.99;97577.25;10271275;28;20070;-27
2023/10/06 20:46:16;;;;;;;15.77;8.17;;;;;;;19.70;57.15;97579.81;10283206;28;20042;-27
2023/10/06 20:51:16;;;;;;;13.98;8.18;;;;;;;19.69;56.83;97580.66;10281475;28;20792;-30
2023/10/06 20:56:18;;;;;;;13.90;8.50;;;;;;;19.67;56.93;97584.88;10272720;28;20433;-27
2023/10/06 21:01:20;;;;;;;14.30;8.00;;;;;;;19.66;56.67;97583.16;10269114;28;20043;-27
2023/10/06 21:06:20;;;;;;;14.88;7.47;;;;;;;19.65;56.54;97591.59;10268111;28;20042;-28
2023/10/06 21:11:22;;;;;;;16.87;7.17;;;;;;;19.65;56.50;97594.16;10276242;28;20038;-27
2023/10/06 21:16:23;;;;;;;10.43;5.68;;;;;;;19.65;56.32;97586.53;10269641;28;20095;-28
2023/10/06 21:21:23;;;;;;;8.77;5.40;;;;;;;19.63;56.01;97590.75;10269189;28;20043;-27
2023/10/06 21:26:24;;;;;;;11.17;5.63;;;;;;;19.65;56.04;97592.47;10270350;28;20043;-27
2023/10/06 21:31:24;;;;;;;9.73;4.93;;;;;;;19.64;55.49;97587.38;10265265;28;20514;-28
2023/10/06 21:36:24;;;;;;;7.93;5.13;;;;;;;19.63;55.75;97595.81;10269328;28;20068;-27
2023/10/06 21:41:25;;;;;;;6.97;4.43;;;;;;;19.62;55.96;97596.66;10276841;28;20035;-27
2023/10/06 21:46:25;;;;;;;9.43;5.20;;;;;;;19.63;55.72;97591.63;10273251;28;20046;-28
2023/10/06 21:51:26;;;;;;;6.28;3.75;;;;;;;19.64;54.21;97592.44;10282447;28;20127;-28
2023/10/06 21:56:26;;;;;;;5.57;3.40;;;;;;;19.58;54.14;97582.25;10273181;28;20405;-28
2023/10/06 22:01:27;;;;;;;4.87;2.70;;;;;;;19.56;53.72;97573.75;10270235;28;20478;-27
2023/10/06 22:06:28;;;;;;;4.60;3.05;;;;;;;19.54;53.23;97575.41;10274240;28;20114;-27
2023/10/06 22:11:28;;;;;;;4.30;2.78;;;;;;;19.55;53.26;97574.59;10270509;28;20031;-27
2023/10/06 22:16:28;;;;;;;5.03;2.35;;;;;;;19.57;53.38;97577.97;10267801;28;20505;-27
2023/10/06 22:21:29;;;;;;;4.33;2.93;;;;;;;19.55;53.18;97575.44;10267634;28;20046;-28
2023/10/06 22:26:30;;;;;;;4.13;2.75;;;;;;;19.54;52.86;97571.22;10269534;28;20043;-27
2023/10/06 22:31:31;;;;;;;4.45;2.80;;;;;;;19.51;52.69;97570.31;10268078;28;20066;-27
2023/10/06 22:36:32;;;;;;;5.43;2.70;;;;;;;19.52;52.47;97567.78;10272418;28;20106;-27
2023/10/06 22:41:32;;;;;;;2.92;1.95;;;;;;;19.49;52.52;97567.75;10264218;28;20038;-28
2023/10/06 22:46:33;;;;;;;4.10;2.60;;;;;;;19.46;52.29;97567.75;10263369;28;20035;-27
2023/10/06 22:51:33;;;;;;;5.07;3.23;;;;;;;19.53;52.62;97571.19;10269485;28;20541;-27
2023/10/06 22:56:34;;;;;;;4.68;3.25;;;;;;;19.48;52.17;97575.34;10265682;28;20528;-27
2023/10/06 23:01:34;;;;;;;4.63;2.70;;;;;;;19.46;51.99;97580.44;10263753;28;20043;-28
2023/10/06 23:06:37;;;;;;;3.87;2.97;;;;;;;19.45;51.87;97582.94;10266188;28;20054;-27
2023/10/06 23:11:38;;;;;;;4.95;3.30;;;;;;;19.43;51.59;97574.47;10273107;28;20054;-27
2023/10/06 23:16:39;;;;;;;4.25;2.72;;;;;;;19.41;51.51;97583.78;10259925;28;20039;-27
2023/10/06 23:21:46;;;;;;;6.78;2.80;;;;;;;19.43;51.60;97587.19;10273819;28;20522;-28
2023/10/06 23:26:46;;;;;;;4.28;2.47;;;;;;;19.42;51.19;97578.69;10280749;28;20042;-27
2023/10/06 23:31:47;;;;;;;4.27;2.27;;;;;;;19.39;51.10;97582.88;10279779;28;20092;-27
2023/10/06 23:36:49;;;;;;;5.95;2.80;;;;;;;19.38;51.12;97558.31;10272617;28;20039;-27
2023/10/06 23:41:50;;;;;;;5.63;3.55;;;;;;;19.37;50.87;97560.03;10278068;28;20114;-28
2023/10/06 23:46:53;;;;;;;4.40;3.00;;;;;;;19.39;50.74;97554.94;10279616;28;20479;-28